Time;durP1;ratioP1;P1;durP2;ratioP2;P2;SDS_P1;SDS_P2;PMS_P1;PMS_P2;Temp;Humidity;BMP_temperature;BMP_pressure;BME280_temperature;BME280_humidity;BME280_pressure;Samples;Min_cycle;Max_cycle;Signal;HPM_P1;HPM_P2
2021/10/07 00:00:10;;;;;;;1.55;1.13;;;9.00;99.90;;;;;;4915367;29;20537;-65
2021/10/07 00:02:38;;;;;;;2.55;1.40;;;9.00;99.90;;;;;;4916001;29;20265;-65
2021/10/07 00:05:09;;;;;;;2.00;1.15;;;9.10;99.90;;;;;;4916022;29;20705;-65
2021/10/07 00:07:38;;;;;;;2.20;1.70;;;9.00;99.90;;;;;;4914034;29;20204;-67
2021/10/07 00:10:07;;;;;;;3.17;1.33;;;9.00;99.90;;;;;;4915929;29;20437;-66
2021/10/07 00:12:35;;;;;;;1.42;1.33;;;9.00;99.90;;;;;;4915358;29;20232;-66
2021/10/07 00:15:05;;;;;;;1.60;1.50;;;9.00;99.90;;;;;;4915571;29;20203;-66
2021/10/07 00:17:33;;;;;;;1.98;0.98;;;8.90;99.90;;;;;;4915350;29;20512;-66
2021/10/07 00:20:01;;;;;;;2.00;1.50;;;8.90;99.90;;;;;;4915785;29;20801;-66
2021/10/07 00:22:29;;;;;;;3.88;1.70;;;8.90;99.90;;;;;;4914099;29;20221;-66
2021/10/07 00:24:58;;;;;;;1.33;0.98;;;8.90;99.90;;;;;;4915315;29;20571;-66
2021/10/07 00:27:26;;;;;;;0.93;0.82;;;9.00;99.90;;;;;;4915683;29;20194;-66
2021/10/07 00:29:56;;;;;;;1.05;0.80;;;8.90;99.90;;;;;;4915578;29;20189;-66
2021/10/07 00:32:29;;;;;;;1.42;0.90;;;9.00;99.90;;;;;;4915356;29;20287;-67
2021/10/07 00:40:25;;;;;;;0.90;0.80;;;8.90;99.90;;;;;;4915247;29;20197;-66
2021/10/07 00:42:53;;;;;;;2.65;1.23;;;8.90;99.90;;;;;;4914975;29;20241;-66
2021/10/07 00:45:21;;;;;;;1.47;1.03;;;8.90;99.90;;;;;;4915087;29;20671;-66
2021/10/07 00:47:51;;;;;;;1.13;0.90;;;8.80;99.90;;;;;;4915444;29;20433;-66
2021/10/07 00:50:19;;;;;;;1.58;0.82;;;8.80;99.90;;;;;;4915444;29;20713;-66
2021/10/07 00:52:47;;;;;;;2.55;2.13;;;8.90;99.90;;;;;;4915045;29;20217;-66
2021/10/07 00:55:16;;;;;;;1.30;1.20;;;8.90;99.90;;;;;;4913952;29;20565;-65
2021/10/07 00:57:44;;;;;;;1.27;0.80;;;8.90;99.90;;;;;;4914984;29;20433;-67
2021/10/07 01:00:14;;;;;;;3.17;1.50;;;8.90;99.90;;;;;;4915076;29;20185;-66
2021/10/07 01:02:42;;;;;;;1.10;0.97;;;8.80;99.90;;;;;;4914773;29;20276;-66
2021/10/07 01:05:12;;;;;;;0.90;0.63;;;8.90;99.90;;;;;;4915094;29;20488;-66
2021/10/07 01:07:40;;;;;;;1.52;1.42;;;8.80;99.90;;;;;;4914933;29;20213;-66
2021/10/07 01:10:09;;;;;;;2.03;1.92;;;8.90;99.90;;;;;;4915235;29;20174;-66
2021/10/07 01:12:37;;;;;;;1.40;0.70;;;8.90;99.90;;;;;;4915020;29;20209;-66
2021/10/07 01:15:06;;;;;;;1.90;1.70;;;8.80;99.90;;;;;;4915004;29;20193;-66
2021/10/07 01:17:34;;;;;;;0.98;0.82;;;8.60;99.90;;;;;;4915040;29;20178;-66
2021/10/07 01:20:06;;;;;;;4.40;4.10;;;8.60;99.90;;;;;;4914889;29;20529;-66
2021/10/07 01:22:34;;;;;;;2.03;1.35;;;8.50;99.90;;;;;;4914901;29;20352;-66
2021/10/07 01:25:02;;;;;;;8.15;1.73;;;8.50;99.90;;;;;;4915022;29;20186;-66
2021/10/07 01:27:33;;;;;;;1.17;1.02;;;8.60;99.90;;;;;;4915447;29;20617;-65
2021/10/07 01:30:04;;;;;;;0.90;0.77;;;8.60;99.90;;;;;;4915436;29;20189;-65
2021/10/07 01:32:34;;;;;;;1.60;0.90;;;8.60;99.90;;;;;;4914822;29;20718;-66
2021/10/07 01:35:05;;;;;;;1.23;1.13;;;8.60;99.90;;;;;;4914993;29;20202;-66
2021/10/07 01:37:33;;;;;;;1.35;1.08;;;8.60;99.90;;;;;;4918339;29;20197;-65
2021/10/07 01:40:02;;;;;;;2.05;0.90;;;8.50;99.90;;;;;;4916491;29;20273;-67
2021/10/07 01:42:30;;;;;;;1.88;0.63;;;8.40;99.90;;;;;;4917901;29;20611;-67
2021/10/07 01:44:58;;;;;;;1.42;1.15;;;8.60;99.90;;;;;;4917853;29;20177;-66
2021/10/07 01:47:26;;;;;;;2.08;1.08;;;8.50;99.90;;;;;;4918085;29;20189;-65
2021/10/07 01:49:54;;;;;;;0.93;0.70;;;8.50;99.90;;;;;;4917816;29;20182;-65
2021/10/07 01:52:24;;;;;;;1.50;1.10;;;8.30;99.90;;;;;;4917480;29;20249;-66
2021/10/07 01:54:52;;;;;;;1.10;1.00;;;8.30;99.90;;;;;;4917693;29;20197;-66
2021/10/07 01:57:20;;;;;;;0.95;0.82;;;8.30;99.90;;;;;;4917761;29;20293;-66
2021/10/07 01:59:48;;;;;;;1.65;0.80;;;8.20;99.90;;;;;;4917339;29;20209;-66
2021/10/07 02:02:16;;;;;;;1.30;0.90;;;8.20;99.90;;;;;;4917440;29;20261;-66
2021/10/07 02:04:44;;;;;;;1.40;1.13;;;8.20;99.90;;;;;;4917577;29;20719;-66
2021/10/07 02:07:13;;;;;;;0.90;0.60;;;8.20;99.90;;;;;;4917308;29;20186;-64
2021/10/07 02:09:42;;;;;;;2.28;0.82;;;8.20;99.90;;;;;;4917218;29;20185;-66
2021/10/07 02:12:10;;;;;;;2.75;2.55;;;8.30;99.90;;;;;;4917174;29;20213;-65
2021/10/07 02:14:38;;;;;;;1.20;1.05;;;8.30;99.90;;;;;;4917193;29;20186;-66
2021/10/07 02:17:07;;;;;;;2.05;1.95;;;8.20;99.90;;;;;;4917313;29;20671;-66
2021/10/07 02:19:35;;;;;;;0.80;0.60;;;8.00;99.90;;;;;;4916799;29;20639;-65
2021/10/07 02:22:04;;;;;;;1.00;0.80;;;8.10;99.90;;;;;;4917164;29;20217;-65
2021/10/07 02:24:32;;;;;;;0.90;0.73;;;8.10;99.90;;;;;;4917008;29;20186;-65
2021/10/07 02:27:01;;;;;;;0.90;0.80;;;8.10;99.90;;;;;;4917255;29;20186;-65
2021/10/07 02:29:30;;;;;;;1.17;0.77;;;8.10;99.90;;;;;;4917026;29;20256;-66
2021/10/07 02:31:58;;;;;;;1.13;0.93;;;8.20;99.90;;;;;;4916729;29;20221;-65
2021/10/07 02:34:26;;;;;;;1.95;1.85;;;8.10;99.90;;;;;;4916763;29;20213;-66
2021/10/07 02:36:54;;;;;;;1.92;1.52;;;8.10;99.90;;;;;;4916945;29;20238;-66
2021/10/07 02:39:22;;;;;;;1.10;0.90;;;8.10;99.90;;;;;;4916814;29;20214;-66
2021/10/07 02:41:50;;;;;;;1.00;0.90;;;8.10;99.90;;;;;;4916594;29;20233;-66
2021/10/07 02:44:20;;;;;;;1.85;1.65;;;7.90;99.90;;;;;;4915230;29;20194;-66
2021/10/07 02:46:48;;;;;;;1.52;0.90;;;8.00;99.90;;;;;;4915875;29;20281;-66
2021/10/07 02:49:16;;;;;;;1.75;1.65;;;7.90;99.90;;;;;;4916690;29;20168;-66
2021/10/07 02:51:44;;;;;;;1.30;1.17;;;7.90;99.90;;;;;;4916780;29;20583;-66
2021/10/07 02:54:12;;;;;;;2.50;2.30;;;7.90;99.90;;;;;;4916917;29;20715;-66
2021/10/07 02:56:40;;;;;;;1.00;0.90;;;7.90;99.90;;;;;;4918551;29;20197;-66
2021/10/07 02:59:08;;;;;;;3.00;1.45;;;7.80;99.90;;;;;;4917669;29;20212;-65
2021/10/07 03:01:38;;;;;;;1.15;1.05;;;7.80;99.90;;;;;;4921031;29;20220;-66
2021/10/07 03:04:06;;;;;;;1.80;1.70;;;7.80;99.90;;;;;;4921415;29;20201;-66
2021/10/07 03:06:34;;;;;;;1.42;1.15;;;7.80;99.90;;;;;;4920979;29;20602;-66
2021/10/07 03:09:03;;;;;;;0.90;0.80;;;7.80;99.90;;;;;;4921332;29;20193;-65
2021/10/07 03:11:32;;;;;;;1.20;0.90;;;7.90;99.90;;;;;;4917308;29;20228;-65
2021/10/07 03:14:00;;;;;;;2.45;1.35;;;7.80;99.90;;;;;;4916741;29;20186;-65
2021/10/07 03:16:28;;;;;;;2.15;1.45;;;7.80;99.90;;;;;;4917107;29;20186;-65
2021/10/07 03:18:57;;;;;;;2.30;1.30;;;7.80;99.90;;;;;;4916052;29;20197;-65
2021/10/07 03:21:25;;;;;;;2.55;2.35;;;7.80;99.90;;;;;;4915093;29;20228;-65
2021/10/07 03:23:54;;;;;;;1.25;0.60;;;7.70;99.90;;;;;;4915807;29;20667;-65
2021/10/07 03:26:22;;;;;;;0.80;0.50;;;7.70;99.90;;;;;;4916521;29;20224;-65
2021/10/07 03:28:50;;;;;;;1.52;0.80;;;7.70;99.90;;;;;;4917367;29;20205;-66
2021/10/07 03:31:18;;;;;;;1.85;1.05;;;7.70;99.90;;;;;;4916826;29;20221;-65
2021/10/07 03:33:46;;;;;;;2.85;1.35;;;7.60;99.90;;;;;;4917395;29;20244;-65
2021/10/07 03:36:16;;;;;;;0.90;0.60;;;7.70;99.90;;;;;;4916023;29;20205;-65
2021/10/07 03:38:44;;;;;;;2.17;2.08;;;7.70;99.90;;;;;;4916268;29;20182;-65
2021/10/07 03:41:12;;;;;;;0.90;0.68;;;7.70;99.90;;;;;;4915818;29;20224;-65
2021/10/07 03:43:40;;;;;;;0.80;0.50;;;7.70;99.90;;;;;;4916220;29;20193;-66
2021/10/07 03:46:08;;;;;;;4.95;1.55;;;7.70;99.90;;;;;;4916107;29;20662;-65
2021/10/07 03:48:36;;;;;;;1.08;0.80;;;7.70;99.90;;;;;;4915978;29;20201;-65
2021/10/07 03:51:05;;;;;;;1.00;0.80;;;7.70;99.90;;;;;;4915591;29;20715;-65
2021/10/07 03:53:34;;;;;;;1.10;1.00;;;7.70;99.90;;;;;;4915858;29;20678;-65
2021/10/07 03:56:04;;;;;;;1.55;1.23;;;7.70;99.90;;;;;;4915731;29;20181;-65
2021/10/07 03:58:32;;;;;;;0.90;0.68;;;7.80;99.90;;;;;;4915152;29;20210;-66
2021/10/07 04:01:00;;;;;;;0.95;0.75;;;7.80;99.90;;;;;;4932696;29;20244;-65
2021/10/07 04:03:29;;;;;;;2.35;1.35;;;7.80;99.90;;;;;;4934303;29;20670;-65
2021/10/07 04:05:57;;;;;;;0.80;0.50;;;7.80;99.90;;;;;;4934531;29;20192;-66
2021/10/07 04:08:30;;;;;;;1.13;0.82;;;7.80;99.90;;;;;;4934667;29;20288;-65
2021/10/07 04:10:59;;;;;;;1.27;0.90;;;7.60;99.90;;;;;;4934220;29;20224;-65
2021/10/07 04:13:28;;;;;;;2.22;1.08;;;7.60;99.90;;;;;;4934193;29;20189;-65
2021/10/07 04:15:56;;;;;;;2.55;1.55;;;7.60;99.90;;;;;;4933031;29;20251;-66
2021/10/07 04:18:24;;;;;;;1.17;0.98;;;7.50;99.90;;;;;;4934732;29;20277;-65
2021/10/07 04:20:52;;;;;;;1.00;0.60;;;7.40;99.90;;;;;;4934310;29;20299;-65
2021/10/07 04:23:21;;;;;;;3.85;2.10;;;7.60;99.90;;;;;;4934324;29;20192;-65
2021/10/07 04:25:49;;;;;;;1.67;1.23;;;7.50;99.90;;;;;;4934462;29;20729;-66
2021/10/07 04:28:18;;;;;;;2.30;2.10;;;7.50;99.90;;;;;;4934572;29;20239;-64
2021/10/07 04:30:46;;;;;;;1.90;1.75;;;7.50;99.90;;;;;;4934138;29;20554;-65
2021/10/07 04:33:15;;;;;;;1.50;1.33;;;7.40;99.90;;;;;;4934495;29;20180;-65
2021/10/07 04:35:43;;;;;;;2.00;1.08;;;7.50;99.90;;;;;;4934086;29;20227;-64
2021/10/07 04:38:11;;;;;;;1.38;1.15;;;7.50;99.90;;;;;;4933384;29;20200;-65
2021/10/07 04:40:40;;;;;;;1.10;0.90;;;7.50;99.90;;;;;;4921734;29;20209;-66
2021/10/07 04:43:08;;;;;;;1.50;0.90;;;7.50;99.90;;;;;;4919382;29;20204;-65
2021/10/07 04:45:37;;;;;;;1.10;0.80;;;7.50;99.90;;;;;;4927671;29;20249;-64
2021/10/07 04:48:06;;;;;;;1.67;1.25;;;7.50;99.90;;;;;;4926846;29;20288;-66
2021/10/07 04:50:34;;;;;;;2.20;2.03;;;7.50;99.90;;;;;;4918263;29;20597;-65
2021/10/07 04:53:02;;;;;;;1.75;1.08;;;7.50;99.90;;;;;;4914994;29;20232;-64
2021/10/07 04:55:30;;;;;;;1.20;1.00;;;7.50;99.90;;;;;;4914649;29;20189;-65
2021/10/07 04:57:58;;;;;;;1.50;1.10;;;7.50;99.90;;;;;;4914882;29;20181;-65
2021/10/07 05:00:27;;;;;;;1.83;1.65;;;7.40;99.90;;;;;;4914466;29;20241;-66
2021/10/07 05:02:57;;;;;;;0.90;0.70;;;7.40;99.90;;;;;;4921446;29;20219;-64
2021/10/07 05:05:25;;;;;;;1.50;1.40;;;7.30;99.90;;;;;;4933812;29;20621;-65
2021/10/07 05:07:53;;;;;;;1.25;0.60;;;7.40;99.90;;;;;;4931589;29;20240;-65
2021/10/07 05:10:22;;;;;;;3.20;2.90;;;7.50;99.90;;;;;;4914604;29;20280;-65
2021/10/07 05:12:50;;;;;;;2.00;1.02;;;7.50;99.90;;;;;;4917810;29;20209;-65
2021/10/07 05:15:21;;;;;;;2.00;1.60;;;7.60;99.90;;;;;;4916869;29;20608;-65
2021/10/07 05:17:49;;;;;;;1.00;0.70;;;7.50;99.90;;;;;;4917958;29;20264;-65
2021/10/07 05:20:19;;;;;;;2.75;2.08;;;7.40;99.90;;;;;;4918525;29;20558;-65
2021/10/07 05:22:47;;;;;;;2.20;1.98;;;7.30;99.90;;;;;;4918066;29;20217;-65
2021/10/07 05:25:15;;;;;;;4.07;1.13;;;7.30;99.90;;;;;;4918221;29;20198;-65
2021/10/07 05:27:44;;;;;;;1.10;0.70;;;7.40;99.90;;;;;;4918142;29;20200;-66
2021/10/07 05:30:12;;;;;;;1.80;1.08;;;7.50;99.90;;;;;;4918239;29;20236;-65
2021/10/07 05:32:40;;;;;;;1.60;1.50;;;7.50;99.90;;;;;;4917989;29;20213;-65
2021/10/07 05:35:09;;;;;;;1.20;1.10;;;7.60;99.90;;;;;;4918127;29;20252;-65
2021/10/07 05:37:38;;;;;;;1.30;1.13;;;7.50;99.90;;;;;;4918032;29;20199;-65
2021/10/07 05:40:08;;;;;;;0.90;0.70;;;7.40;99.90;;;;;;4918391;29;20241;-65
2021/10/07 05:42:36;;;;;;;6.45;1.95;;;7.50;99.90;;;;;;4918290;29;20213;-66
2021/10/07 05:45:06;;;;;;;2.40;2.30;;;7.60;99.90;;;;;;4918293;29;20197;-66
2021/10/07 05:47:34;;;;;;;2.00;1.15;;;7.50;99.90;;;;;;4917890;29;20560;-66
2021/10/07 05:50:02;;;;;;;1.65;1.40;;;7.50;99.90;;;;;;4917804;29;20421;-65
2021/10/07 05:52:30;;;;;;;2.00;1.52;;;7.40;99.90;;;;;;4917941;29;20771;-65
2021/10/07 05:54:59;;;;;;;1.95;1.35;;;7.50;99.90;;;;;;4917833;29;20225;-66
2021/10/07 05:57:28;;;;;;;0.90;0.70;;;7.50;99.90;;;;;;4917845;29;20193;-65
2021/10/07 05:59:56;;;;;;;1.33;1.23;;;7.40;99.90;;;;;;4921592;29;20212;-65
2021/10/07 06:02:24;;;;;;;6.55;2.03;;;7.40;99.90;;;;;;4936666;29;20235;-65
2021/10/07 06:04:52;;;;;;;1.40;0.80;;;7.40;99.90;;;;;;4917986;29;20253;-65
2021/10/07 06:07:20;;;;;;;1.70;1.15;;;7.40;99.90;;;;;;4918035;29;20226;-66
2021/10/07 06:09:48;;;;;;;3.35;2.70;;;7.50;99.90;;;;;;4918593;29;20225;-64
2021/10/07 06:12:18;;;;;;;2.15;1.50;;;7.50;99.90;;;;;;4917844;29;20219;-66
2021/10/07 06:14:46;;;;;;;12.70;7.95;;;7.60;99.90;;;;;;4917761;29;20261;-66
2021/10/07 06:17:14;;;;;;;4.97;4.57;;;7.70;99.90;;;;;;4917890;29;20190;-66
2021/10/07 06:19:44;;;;;;;2.17;1.40;;;7.80;99.90;;;;;;4918022;29;20563;-65
2021/10/07 06:22:14;;;;;;;1.80;1.70;;;7.80;99.90;;;;;;4916935;29;20633;-65
2021/10/07 06:24:42;;;;;;;2.85;1.67;;;8.00;99.90;;;;;;4917601;29;20198;-65
2021/10/07 06:27:10;;;;;;;1.45;1.35;;;8.00;99.90;;;;;;4917243;29;20206;-66
2021/10/07 06:29:40;;;;;;;3.28;1.58;;;8.20;99.90;;;;;;4916866;29;20230;-66
2021/10/07 06:32:08;;;;;;;0.95;0.85;;;8.20;99.90;;;;;;4917248;29;20206;-65
2021/10/07 06:34:36;;;;;;;2.13;2.03;;;8.10;99.90;;;;;;4916802;29;20205;-65
2021/10/07 06:37:05;;;;;;;1.20;1.10;;;8.10;99.90;;;;;;4915449;29;20304;-67
2021/10/07 06:39:33;;;;;;;0.90;0.80;;;8.10;99.90;;;;;;4916913;29;20186;-65
2021/10/07 06:42:01;;;;;;;2.13;1.27;;;8.20;99.90;;;;;;4916554;29;20698;-67
2021/10/07 06:44:29;;;;;;;4.53;1.38;;;8.30;99.90;;;;;;4916813;29;20294;-69
2021/10/07 06:46:58;;;;;;;2.67;2.47;;;8.50;99.90;;;;;;4916749;29;20190;-66
2021/10/07 06:49:26;;;;;;;1.23;1.13;;;8.60;99.90;;;;;;4916867;29;20181;-66
2021/10/07 06:51:55;;;;;;;3.25;1.92;;;8.70;99.90;;;;;;4916758;29;20217;-65
2021/10/07 06:54:23;;;;;;;2.42;2.15;;;8.90;99.90;;;;;;4916551;29;20190;-66
2021/10/07 06:56:51;;;;;;;1.80;1.50;;;9.00;99.90;;;;;;4916556;29;20197;-66
2021/10/07 06:59:19;;;;;;;2.10;1.40;;;9.10;99.90;;;;;;4916436;29;20651;-66
2021/10/07 07:01:47;;;;;;;1.87;1.10;;;9.20;99.90;;;;;;4916517;29;20465;-66
2021/10/07 07:04:17;;;;;;;1.60;1.27;;;9.40;99.90;;;;;;4916306;29;20442;-66
2021/10/07 07:06:46;;;;;;;1.80;1.48;;;9.50;99.90;;;;;;4916683;29;20437;-66
2021/10/07 07:09:14;;;;;;;1.47;1.10;;;9.60;99.90;;;;;;4930167;29;20722;-65
2021/10/07 07:11:42;;;;;;;1.20;1.10;;;9.70;99.90;;;;;;4928477;29;20461;-65
2021/10/07 07:14:10;;;;;;;2.10;1.83;;;9.90;99.90;;;;;;4916668;29;20436;-65
2021/10/07 07:16:38;;;;;;;3.00;1.63;;;9.90;99.90;;;;;;4916690;29;20414;-65
2021/10/07 07:19:24;;;;;;;6.63;3.00;;;10.10;99.90;;;;;;4916523;29;20437;-66
2021/10/07 07:21:52;;;;;;;1.30;1.20;;;10.40;99.90;;;;;;4916663;29;20469;-66
2021/10/07 07:24:20;;;;;;;6.63;3.17;;;10.50;99.90;;;;;;4916821;29;21011;-66
2021/10/07 07:26:48;;;;;;;2.97;1.80;;;10.60;99.90;;;;;;4916774;29;20438;-66
2021/10/07 07:29:16;;;;;;;2.10;1.90;;;10.70;99.90;;;;;;4925209;29;20431;-66
2021/10/07 07:31:44;;;;;;;2.40;1.70;;;10.80;99.90;;;;;;4917624;29;21202;-67
2021/10/07 07:34:12;;;;;;;1.73;1.27;;;10.80;99.90;;;;;;4922943;29;20954;-68
2021/10/07 07:36:42;;;;;;;1.50;1.10;;;11.00;99.90;;;;;;4926326;29;20665;-65
2021/10/07 07:39:10;;;;;;;1.77;0.93;;;11.10;99.90;;;;;;4924268;29;20436;-66
2021/10/07 07:41:38;;;;;;;1.60;0.83;;;11.20;99.90;;;;;;4930995;29;20942;-67
2021/10/07 07:44:07;;;;;;;1.57;1.47;;;11.20;99.90;;;;;;4934787;29;20428;-67
2021/10/07 07:46:36;;;;;;;2.33;1.53;;;11.30;99.90;;;;;;4934918;29;20443;-66
2021/10/07 07:49:05;;;;;;;3.00;2.33;;;11.40;99.90;;;;;;4934946;29;20435;-66
2021/10/07 07:51:33;;;;;;;2.20;1.70;;;11.50;99.90;;;;;;4926097;29;20841;-65
2021/10/07 07:54:03;;;;;;;1.97;1.77;;;11.60;99.90;;;;;;4914800;29;20462;-67
2021/10/07 07:56:33;;;;;;;1.50;1.10;;;11.60;99.90;;;;;;4915390;29;20445;-67
2021/10/07 07:59:01;;;;;;;1.00;0.80;;;11.70;99.90;;;;;;4915257;29;20434;-66
2021/10/07 08:01:31;;;;;;;2.40;2.07;;;11.80;99.90;;;;;;4915237;29;20461;-66
2021/10/07 08:03:59;;;;;;;1.30;1.17;;;12.00;99.90;;;;;;4915317;29;20440;-66
2021/10/07 08:06:27;;;;;;;3.17;2.07;;;12.10;99.90;;;;;;4916796;29;20445;-66
2021/10/07 08:08:56;;;;;;;1.17;0.90;;;12.30;99.90;;;;;;4916077;29;20441;-66
2021/10/07 08:11:25;;;;;;;1.73;1.07;;;12.50;99.90;;;;;;4915423;29;20453;-66
2021/10/07 08:13:55;;;;;;;1.57;1.23;;;12.40;99.90;;;;;;4915648;29;20433;-66
2021/10/07 08:16:23;;;;;;;3.10;2.00;;;12.60;99.90;;;;;;4915909;29;20437;-67
2021/10/07 08:18:51;;;;;;;1.70;1.60;;;12.70;1.00;;;;;;4916089;29;20519;-67
2021/10/07 08:21:20;;;;;;;1.80;1.03;;;12.70;1.00;;;;;;4915268;29;20454;-67
2021/10/07 08:23:49;;;;;;;1.50;1.20;;;12.80;1.00;;;;;;4914925;29;20978;-67
2021/10/07 08:26:17;;;;;;;2.03;1.80;;;12.80;1.00;;;;;;4914832;29;20396;-66
2021/10/07 08:28:47;;;;;;;1.87;1.67;;;12.80;1.00;;;;;;4914955;29;20445;-67
2021/10/07 08:31:16;;;;;;;2.10;1.90;;;13.00;99.90;;;;;;4913902;29;20978;-67
2021/10/07 08:33:44;;;;;;;2.87;1.30;;;13.10;99.90;;;;;;4914694;29;20845;-67
2021/10/07 08:36:12;;;;;;;1.67;1.13;;;13.30;99.90;;;;;;4914741;29;20740;-66
2021/10/07 08:38:40;;;;;;;1.83;0.97;;;13.30;99.90;;;;;;4915080;29;20426;-65
2021/10/07 08:41:09;;;;;;;1.30;1.20;;;13.50;99.90;;;;;;4914789;29;20987;-66
2021/10/07 08:43:38;;;;;;;2.70;1.20;;;13.60;99.90;;;;;;4915001;29;20504;-67
2021/10/07 08:46:10;;;;;;;4.43;4.23;;;13.80;99.90;;;;;;4914705;29;20418;-67
2021/10/07 08:48:40;;;;;;;2.60;2.40;;;14.00;99.90;;;;;;4914472;29;20408;-67
2021/10/07 08:51:08;;;;;;;1.10;0.90;;;14.00;99.90;;;;;;4914515;29;20452;-66
2021/10/07 08:53:36;;;;;;;1.57;1.47;;;14.00;99.90;;;;;;4914429;29;20792;-67
2021/10/07 08:56:06;;;;;;;4.23;2.30;;;14.00;99.90;;;;;;4913221;29;20441;-66
2021/10/07 08:58:34;;;;;;;2.17;1.20;;;14.00;99.90;;;;;;4914711;29;20433;-67
2021/10/07 09:01:05;;;;;;;1.20;0.90;;;14.20;99.90;;;;;;4914442;29;20449;-66
2021/10/07 09:03:41;;;;;;;1.73;1.63;;;14.40;99.90;;;;;;4914288;29;20487;-67
2021/10/07 09:06:11;;;;;;;2.00;1.07;;;14.60;99.90;;;;;;4914760;29;20400;-67
2021/10/07 09:08:45;;;;;;;2.07;1.13;;;14.60;99.90;;;;;;4914871;29;20437;-68
2021/10/07 09:11:26;;;;;;;1.63;1.53;;;14.60;99.90;;;;;;4914360;29;20453;-67
2021/10/07 09:14:02;;;;;;;2.13;1.93;;;14.60;99.90;;;;;;4914400;29;20396;-67
2021/10/07 09:16:33;;;;;;;5.97;1.67;;;14.70;99.90;;;;;;4914529;29;20807;-66
2021/10/07 09:19:17;;;;;;;1.70;1.53;;;14.90;99.90;;;;;;4914683;29;20516;-66
2021/10/07 09:21:46;;;;;;;2.93;1.57;;;14.90;99.90;;;;;;4914581;29;20419;-67
2021/10/07 09:24:36;;;;;;;1.40;0.73;;;15.00;99.90;;;;;;4914307;29;20560;-67
2021/10/07 09:27:08;;;;;;;3.43;1.30;;;14.90;99.90;;;;;;4914497;29;20820;-66
2021/10/07 09:29:47;;;;;;;2.27;2.00;;;15.00;99.90;;;;;;4914454;29;20426;-67
2021/10/07 09:32:23;;;;;;;1.40;0.83;;;15.20;99.90;;;;;;4914371;29;20445;-67
2021/10/07 09:34:53;;;;;;;1.87;1.37;;;15.40;99.90;;;;;;4914215;29;20444;-67
2021/10/07 09:37:32;;;;;;;2.53;2.33;;;15.40;99.90;;;;;;4914434;29;20437;-67
2021/10/07 09:40:08;;;;;;;6.10;2.13;;;15.40;99.90;;;;;;4914351;29;20421;-66
2021/10/07 09:42:39;;;;;;;2.27;2.10;;;15.50;99.90;;;;;;4914134;29;20447;-66
2021/10/07 09:45:13;;;;;;;2.53;2.33;;;15.60;99.90;;;;;;4914404;29;20556;-67
2021/10/07 09:47:43;;;;;;;1.77;1.33;;;15.70;99.90;;;;;;4914489;29;20396;-67
2021/10/07 09:50:25;;;;;;;1.77;1.10;;;15.70;99.90;;;;;;4914305;29;20404;-68
2021/10/07 09:53:05;;;;;;;2.10;1.53;;;15.80;99.90;;;;;;4914116;29;21048;-66
2021/10/07 09:55:37;;;;;;;1.40;0.87;;;15.90;99.90;;;;;;4917096;29;20798;-67
2021/10/07 09:58:11;;;;;;;1.43;1.07;;;15.90;99.90;;;;;;4928271;29;20497;-67
2021/10/07 10:00:42;;;;;;;1.60;1.00;;;16.00;99.90;;;;;;4931318;29;20432;-67
2021/10/07 10:03:12;;;;;;;1.80;1.70;;;16.20;99.90;;;;;;4927914;29;20460;-67
2021/10/07 10:05:44;;;;;;;16.60;2.33;;;16.30;99.90;;;;;;4922654;29;20531;-66
2021/10/07 10:08:14;;;;;;;1.30;1.17;;;16.50;99.90;;;;;;4930094;29;20425;-66
2021/10/07 10:10:45;;;;;;;2.77;1.50;;;16.70;99.90;;;;;;4925829;29;20441;-67
2021/10/07 10:13:15;;;;;;;1.87;0.93;;;16.70;99.90;;;;;;4922257;29;20412;-68
2021/10/07 10:15:44;;;;;;;1.10;0.90;;;16.60;99.90;;;;;;4928996;29;20790;-67
2021/10/07 10:18:14;;;;;;;1.27;1.17;;;16.50;99.90;;;;;;4928571;29;20524;-67
2021/10/07 10:20:48;;;;;;;2.37;1.73;;;16.60;99.90;;;;;;4919192;29;20516;-67
2021/10/07 10:23:18;;;;;;;1.53;1.27;;;16.50;99.90;;;;;;4925107;29;20455;-66
2021/10/07 10:25:54;;;;;;;2.03;1.47;;;16.40;99.90;;;;;;4928320;29;20411;-67
2021/10/07 10:28:47;;;;;;;3.57;1.00;;;16.40;99.90;;;;;;4917307;29;20407;-67
2021/10/07 10:31:18;;;;;;;1.00;0.60;;;16.20;99.90;;;;;;4916790;29;20432;-67
2021/10/07 10:33:49;;;;;;;1.30;0.90;;;16.30;99.90;;;;;;4923250;29;20399;-67
2021/10/07 10:36:33;;;;;;;2.27;2.07;;;16.40;99.90;;;;;;4925611;29;20489;-67
2021/10/07 10:39:06;;;;;;;3.57;1.37;;;16.60;99.90;;;;;;4927843;29;20542;-67
2021/10/07 10:41:45;;;;;;;1.73;0.97;;;16.90;99.90;;;;;;4930489;29;20809;-68
2021/10/07 10:44:34;;;;;;;3.17;1.20;;;17.00;99.90;;;;;;4926025;29;20484;-67
2021/10/07 10:47:16;;;;;;;3.07;1.40;;;17.00;99.90;;;;;;4932835;29;20436;-67
2021/10/07 10:50:13;;;;;;;3.00;1.47;;;16.90;99.90;;;;;;4919748;29;20440;-67
2021/10/07 10:52:50;;;;;;;1.70;1.20;;;17.00;99.90;;;;;;4915114;29;20435;-66
2021/10/07 10:55:23;;;;;;;3.60;1.63;;;17.10;99.90;;;;;;4922093;29;20412;-67
2021/10/07 10:57:53;;;;;;;1.10;0.90;;;17.10;99.90;;;;;;4924646;29;20946;-66
2021/10/07 11:00:26;;;;;;;1.80;1.17;;;16.90;99.90;;;;;;4927525;29;20981;-66
2021/10/07 11:03:15;;;;;;;2.00;1.33;;;16.80;99.90;;;;;;4925269;29;20507;-67
2021/10/07 11:05:56;;;;;;;1.03;0.83;;;16.90;99.90;;;;;;4932423;29;20407;-67
2021/10/07 11:08:26;;;;;;;1.03;0.80;;;17.10;99.90;;;;;;4934620;29;20403;-65
2021/10/07 11:11:11;;;;;;;3.03;1.90;;;17.30;99.90;;;;;;4932383;29;20555;-65
2021/10/07 11:13:47;;;;;;;1.40;0.93;;;17.40;99.90;;;;;;4916391;29;20914;-67
2021/10/07 11:16:17;;;;;;;1.53;0.80;;;17.30;99.90;;;;;;4916439;29;20418;-66
2021/10/07 11:18:47;;;;;;;1.43;1.17;;;17.30;99.90;;;;;;4916406;29;20412;-66
2021/10/07 11:21:17;;;;;;;1.50;1.00;;;17.30;99.90;;;;;;4916050;29;20456;-65
2021/10/07 11:23:50;;;;;;;1.30;1.03;;;17.50;99.90;;;;;;4915900;29;20871;-66
2021/10/07 11:26:18;;;;;;;1.30;0.90;;;17.60;99.90;;;;;;4914734;29;20816;-67
2021/10/07 11:28:48;;;;;;;1.20;0.97;;;17.70;99.90;;;;;;4916320;29;20844;-67
2021/10/07 11:31:18;;;;;;;1.20;0.93;;;17.60;99.90;;;;;;4915956;29;20457;-67
2021/10/07 11:33:49;;;;;;;1.00;0.60;;;17.60;99.90;;;;;;4915739;29;20963;-67
2021/10/07 11:36:19;;;;;;;1.13;1.00;;;17.70;99.90;;;;;;4917309;29;20552;-67
2021/10/07 11:38:51;;;;;;;1.90;0.87;;;17.80;99.90;;;;;;4916190;29;20946;-67
2021/10/07 11:41:23;;;;;;;2.40;1.10;;;17.70;99.90;;;;;;4915819;29;20540;-67
2021/10/07 11:43:52;;;;;;;1.57;0.80;;;17.70;99.90;;;;;;4915876;29;20446;-67
2021/10/07 11:46:21;;;;;;;1.00;0.60;;;17.90;99.90;;;;;;4915636;29;20433;-66
2021/10/07 11:48:51;;;;;;;1.30;0.80;;;18.00;99.90;;;;;;4916344;29;20400;-66
2021/10/07 11:51:22;;;;;;;0.97;0.60;;;17.90;99.40;;;;;;4916344;29;20468;-65
2021/10/07 11:53:54;;;;;;;1.00;0.60;;;17.80;97.10;;;;;;4916387;29;20437;-66
2021/10/07 11:56:24;;;;;;;2.67;1.53;;;17.70;96.10;;;;;;4916553;29;20786;-66
2021/10/07 11:58:56;;;;;;;1.43;1.07;;;17.70;95.00;;;;;;4915452;29;20562;-66
2021/10/07 12:01:25;;;;;;;2.07;0.93;;;17.80;94.50;;;;;;4915587;29;20461;-66
2021/10/07 12:03:55;;;;;;;1.00;0.67;;;17.80;92.90;;;;;;4915535;29;20628;-66
2021/10/07 12:06:25;;;;;;;1.83;0.70;;;17.90;90.40;;;;;;4915630;29;20434;-66
2021/10/07 12:08:55;;;;;;;1.13;0.80;;;17.90;88.70;;;;;;4915632;29;20491;-66
2021/10/07 12:11:25;;;;;;;1.10;0.50;;;18.00;94.30;;;;;;4915073;29;20741;-66
2021/10/07 12:13:56;;;;;;;0.90;0.50;;;18.10;83.90;;;;;;4915556;29;20839;-67
2021/10/07 12:16:26;;;;;;;2.50;0.70;;;18.10;81.40;;;;;;4920612;29;20439;-67
2021/10/07 12:18:57;;;;;;;2.80;0.90;;;18.20;79.40;;;;;;4923250;29;20943;-67
2021/10/07 12:21:27;;;;;;;1.00;0.70;;;18.10;75.90;;;;;;4914949;29;20937;-65
2021/10/07 12:23:59;;;;;;;1.70;1.53;;;18.00;76.40;;;;;;4915670;29;20480;-67
2021/10/07 12:26:30;;;;;;;0.93;0.60;;;18.00;77.90;;;;;;4931746;29;20403;-67
2021/10/07 12:29:01;;;;;;;1.07;0.50;;;18.10;76.80;;;;;;4929064;29;20433;-66
2021/10/07 12:31:32;;;;;;;1.00;0.50;;;18.10;70.90;;;;;;4934989;29;20947;-66
2021/10/07 12:34:03;;;;;;;1.20;0.70;;;18.10;68.40;;;;;;4934469;29;20493;-67
2021/10/07 12:36:43;;;;;;;1.10;0.70;;;18.30;66.40;;;;;;4925469;29;20817;-67
2021/10/07 12:39:28;;;;;;;1.00;0.60;;;18.10;65.10;;;;;;4934096;29;20411;-67
2021/10/07 12:41:58;;;;;;;1.07;0.60;;;18.30;64.20;;;;;;4937303;29;20515;-67
2021/10/07 12:44:29;;;;;;;0.90;0.50;;;18.50;61.70;;;;;;4936928;29;20973;-66
2021/10/07 12:47:01;;;;;;;1.00;0.60;;;18.60;60.30;;;;;;4937375;29;20464;-67
2021/10/07 12:49:34;;;;;;;1.00;0.60;;;18.70;57.90;;;;;;4936589;29;20773;-67
2021/10/07 12:52:12;;;;;;;0.90;0.50;;;18.70;57.00;;;;;;4934712;29;20448;-67
2021/10/07 12:54:49;;;;;;;0.90;0.50;;;18.70;56.90;;;;;;4933273;29;20935;-66
2021/10/07 12:57:35;;;;;;;1.30;0.70;;;18.70;56.00;;;;;;4933701;29;20417;-67
2021/10/07 13:00:05;;;;;;;1.27;0.70;;;18.70;55.30;;;;;;4934430;29;20395;-67
2021/10/07 13:02:34;;;;;;;1.00;0.57;;;18.40;52.80;;;;;;4921226;29;20443;-67
2021/10/07 13:05:12;;;;;;;1.00;0.60;;;18.40;53.00;;;;;;4915899;29;21025;-67
2021/10/07 13:07:41;;;;;;;0.90;0.60;;;18.50;54.30;;;;;;4915575;29;20491;-67
2021/10/07 13:10:11;;;;;;;1.20;1.03;;;18.60;55.60;;;;;;4915710;29;20966;-66
2021/10/07 13:12:39;;;;;;;4.40;0.87;;;18.60;56.20;;;;;;4914865;29;21005;-67